createdAt,value
2019-05-30T00:01:00.060Z,93.63
2019-05-30T00:03:37.897Z,93.60
2019-05-30T00:06:12.490Z,93.58
2019-05-30T00:08:47.239Z,93.61
2019-05-30T00:11:20.610Z,93.65
2019-05-30T00:14:18.140Z,93.66
2019-05-30T00:17:33.908Z,93.69
2019-05-30T00:20:29.513Z,93.71
2019-05-30T00:26:58.201Z,93.80
2019-05-30T00:30:22.875Z,93.81
2019-05-30T00:32:58.741Z,93.77
2019-05-30T00:35:45.747Z,93.77
2019-05-30T00:38:47.890Z,93.85
2019-05-30T00:41:57.863Z,93.75
2019-05-30T00:47:52.465Z,93.82
2019-05-30T00:50:29.841Z,93.84
2019-05-30T00:53:47.931Z,93.82
2019-05-30T00:56:28.548Z,93.83
2019-05-30T00:59:58.755Z,93.79
2019-05-30T01:03:20.864Z,93.80
2019-05-30T01:06:44.248Z,93.87
2019-05-30T01:10:07.488Z,93.88
2019-05-30T01:13:22.017Z,93.76
2019-05-30T01:16:55.281Z,93.75
2019-05-30T01:20:05.290Z,93.80
2019-05-30T01:23:19.018Z,93.87
2019-05-30T01:26:16.443Z,93.88
2019-05-30T01:28:49.213Z,93.96
2019-05-30T01:31:22.762Z,93.98
2019-05-30T01:33:59.945Z,93.96
2019-05-30T01:36:37.726Z,93.99
2019-05-30T01:39:10.366Z,93.97
2019-05-30T01:41:42.360Z,94.02
2019-05-30T01:44:13.723Z,93.83
2019-05-30T01:46:44.955Z,93.82
2019-05-30T01:49:16.709Z,93.84
2019-05-30T01:51:48.317Z,93.91
2019-05-30T01:54:23.569Z,93.88
2019-05-30T01:56:58.530Z,93.86
2019-05-30T01:59:29.360Z,93.86
2019-05-30T02:02:02.908Z,93.90
2019-05-30T02:04:35.664Z,93.86
2019-05-30T02:07:07.551Z,93.90
2019-05-30T02:09:43.606Z,93.79
2019-05-30T02:12:15.285Z,93.72
2019-05-30T02:14:48.763Z,93.72
2019-05-30T02:17:20.622Z,93.59
2019-05-30T02:19:52.314Z,93.44
2019-05-30T02:22:24.654Z,93.40
2019-05-30T02:24:57.180Z,93.37
2019-05-30T02:27:29.379Z,93.41
2019-05-30T02:30:03.969Z,93.17
2019-05-30T02:32:37.258Z,92.89
2019-05-30T02:35:12.580Z,93.15
2019-05-30T02:37:43.887Z,93.33
2019-05-30T02:40:18.031Z,93.45
2019-05-30T02:42:51.636Z,93.50
2019-05-30T02:45:25.093Z,93.58
2019-05-30T02:47:56.996Z,93.71
2019-05-30T02:50:29.031Z,93.72
2019-05-30T02:53:03.523Z,93.56
2019-05-30T02:55:36.899Z,93.55
2019-05-30T02:58:10.441Z,93.56
2019-05-30T03:00:42.489Z,93.59
2019-05-30T03:03:15.008Z,93.63
2019-05-30T03:05:47.079Z,93.66
2019-05-30T03:08:19.440Z,93.65
2019-05-30T03:10:51.698Z,93.68
2019-05-30T03:13:25.954Z,93.76
2019-05-30T03:16:02.068Z,93.84
2019-05-30T03:18:35.758Z,93.89
2019-05-30T03:21:12.396Z,93.89
2019-05-30T03:23:43.369Z,93.89
2019-05-30T03:26:16.199Z,93.85
2019-05-30T03:28:48.122Z,93.88
2019-05-30T03:31:28.687Z,93.89
2019-05-30T03:34:08.805Z,93.97
2019-05-30T03:36:39.210Z,93.96
2019-05-30T03:39:13.093Z,93.95
2019-05-30T03:41:46.488Z,93.99
2019-05-30T03:44:19.455Z,93.96
2019-05-30T03:46:55.354Z,93.87
2019-05-30T03:49:31.547Z,93.79
2019-05-30T03:52:10.665Z,93.77
2019-05-30T03:54:43.008Z,93.73
2019-05-30T03:57:33.034Z,93.66
2019-05-30T04:00:24.478Z,93.73
2019-05-30T04:03:09.395Z,93.77
2019-05-30T04:05:53.493Z,93.78
2019-05-30T04:08:27.891Z,93.83
2019-05-30T04:11:03.733Z,93.79
2019-05-30T04:13:42.478Z,93.81
2019-05-30T04:16:36.233Z,93.82
2019-05-30T04:19:12.351Z,93.85
2019-05-30T04:21:46.045Z,93.76
2019-05-30T04:24:19.598Z,93.78
2019-05-30T04:26:51.895Z,93.70
2019-05-30T04:29:24.019Z,93.65
2019-05-30T04:31:58.247Z,93.56
2019-05-30T04:34:30.340Z,93.53
2019-05-30T04:37:03.599Z,93.54
2019-05-30T04:39:36.773Z,93.65
2019-05-30T04:42:11.364Z,93.52
2019-05-30T04:44:43.933Z,93.54
2019-05-30T04:47:18.288Z,93.56
2019-05-30T04:49:50.366Z,93.55
2019-05-30T04:52:26.056Z,93.55
2019-05-30T04:54:58.914Z,93.51
2019-05-30T04:57:34.202Z,93.44
2019-05-30T05:00:10.807Z,93.36
2019-05-30T05:02:43.396Z,93.28
2019-05-30T05:05:20.926Z,93.15
2019-05-30T05:07:48.649Z,93.08
2019-05-30T05:10:22.341Z,92.79
2019-05-30T05:12:55.483Z,92.60
2019-05-30T05:15:28.567Z,92.32
2019-05-30T05:18:00.361Z,92.11
2019-05-30T05:20:36.068Z,91.54
2019-05-30T05:23:07.000Z,90.95
2019-05-30T05:25:42.253Z,89.40
2019-05-30T05:28:15.657Z,89.04
2019-05-30T05:30:51.516Z,88.23
2019-05-30T05:37:19.474Z,87.31
2019-05-30T05:40:42.504Z,87.23
2019-05-30T05:47:24.651Z,86.55
2019-05-30T05:50:45.710Z,86.44
2019-05-30T05:53:48.688Z,82.42
2019-05-30T05:56:35.680Z,80.81
2019-05-30T06:02:34.209Z,77.45
2019-05-30T06:05:08.662Z,78.29
2019-05-30T06:07:40.333Z,79.10
2019-05-30T06:10:15.216Z,79.36
2019-05-30T06:12:47.192Z,78.96
2019-05-30T06:15:21.173Z,79.39
2019-05-30T06:17:53.619Z,79.21
2019-05-30T06:20:27.362Z,79.22
2019-05-30T06:23:01.069Z,80.03
2019-05-30T06:25:34.298Z,79.80
2019-05-30T06:28:09.563Z,79.87
2019-05-30T06:31:01.578Z,80.48
2019-05-30T06:33:34.707Z,80.90
2019-05-30T06:36:06.728Z,81.37
2019-05-30T06:38:39.622Z,80.08
2019-05-30T06:41:12.115Z,79.35
2019-05-30T06:43:44.267Z,78.67
2019-05-30T06:47:11.556Z,77.81
2019-05-30T06:49:47.474Z,78.79
2019-05-30T06:52:20.885Z,76.84
2019-05-30T06:54:53.231Z,76.11
2019-05-30T06:57:25.235Z,77.19
2019-05-30T06:59:58.686Z,75.62
2019-05-30T07:02:30.557Z,74.81
2019-05-30T07:05:08.270Z,73.29
2019-05-30T07:07:52.081Z,74.90
2019-05-30T07:10:25.066Z,75.46
2019-05-30T07:13:01.881Z,73.96
2019-05-30T07:15:35.155Z,74.56
2019-05-30T07:18:11.205Z,74.93
2019-05-30T07:20:42.991Z,74.00
2019-05-30T07:23:15.170Z,74.03
2019-05-30T07:25:46.831Z,72.65
2019-05-30T07:28:18.588Z,74.48
2019-05-30T07:30:53.082Z,74.21
2019-05-30T07:33:28.038Z,75.22
2019-05-30T07:36:04.294Z,73.47
2019-05-30T07:38:35.539Z,72.95
2019-05-30T07:41:12.014Z,70.35
2019-05-30T07:43:43.361Z,73.09
2019-05-30T07:46:19.349Z,71.91
2019-05-30T07:48:52.931Z,72.60
2019-05-30T07:51:26.369Z,70.74
2019-05-30T07:53:57.772Z,69.62
2019-05-30T07:56:35.395Z,68.39
2019-05-30T07:59:06.712Z,66.39
2019-05-30T08:01:39.641Z,67.31
2019-05-30T08:04:11.088Z,66.51
2019-05-30T08:06:42.259Z,67.56
2019-05-30T08:09:19.028Z,64.50
2019-05-30T08:11:50.512Z,64.71
2019-05-30T08:14:22.401Z,63.36
2019-05-30T08:16:53.864Z,62.45
2019-05-30T08:19:27.978Z,62.09
2019-05-30T08:22:18.969Z,63.90
2019-05-30T08:25:12.548Z,63.60
2019-05-30T08:28:05.524Z,65.85
2019-05-30T08:33:55.948Z,63.14
2019-05-30T08:36:51.605Z,63.01
2019-05-30T08:39:59.933Z,62.13
2019-05-30T08:43:00.603Z,61.96
2019-05-30T08:46:05.871Z,63.77
2019-05-30T08:49:11.720Z,65.50
2019-05-30T08:52:16.427Z,67.85
2019-05-30T08:55:09.736Z,70.11
2019-05-30T08:57:42.266Z,70.92
2019-05-30T09:00:16.426Z,71.44
2019-05-30T09:02:47.729Z,72.11
2019-05-30T09:05:21.496Z,72.37
2019-05-30T09:08:35.915Z,74.12
2019-05-30T09:11:38.840Z,73.97
2019-05-30T09:14:42.873Z,74.56
2019-05-30T09:17:46.706Z,71.87
2019-05-30T09:20:49.323Z,72.28
2019-05-30T09:23:31.292Z,71.52
2019-05-30T09:26:12.830Z,72.16
2019-05-30T09:29:03.669Z,71.33
2019-05-30T09:31:52.714Z,66.89
2019-05-30T09:34:44.813Z,66.00
2019-05-30T09:37:47.941Z,65.11
2019-05-30T09:40:43.609Z,66.92
2019-05-30T09:43:44.686Z,68.04
2019-05-30T09:46:46.869Z,70.52
2019-05-30T09:50:03.806Z,75.42
2019-05-30T09:53:02.434Z,75.20
2019-05-30T09:56:04.383Z,76.04
2019-05-30T09:59:09.854Z,75.79
2019-05-30T10:02:03.746Z,75.71
2019-05-30T10:04:50.409Z,75.88
2019-05-30T10:07:36.130Z,75.00
2019-05-30T10:10:16.484Z,73.53
2019-05-30T10:12:52.784Z,73.80
2019-05-30T10:15:24.879Z,71.44
2019-05-30T10:17:56.959Z,71.88
2019-05-30T10:20:32.800Z,71.59
2019-05-30T10:23:06.848Z,71.40
2019-05-30T10:25:38.075Z,71.27
2019-05-30T10:28:15.098Z,71.50
2019-05-30T10:30:52.342Z,70.54
2019-05-30T10:33:24.609Z,67.24
2019-05-30T10:35:57.034Z,67.71
2019-05-30T10:38:34.351Z,70.34
2019-05-30T10:41:05.623Z,68.54
2019-05-30T10:43:42.656Z,69.69
2019-05-30T10:46:13.960Z,72.04
2019-05-30T10:48:47.268Z,72.14
2019-05-30T10:51:18.112Z,71.45
2019-05-30T10:53:53.909Z,72.73
2019-05-30T10:56:26.328Z,74.32
2019-05-30T10:59:03.149Z,71.15
2019-05-30T11:01:36.593Z,70.97
2019-05-30T11:04:08.029Z,69.33
2019-05-30T11:07:06.854Z,66.74
2019-05-30T11:09:28.670Z,65.67
2019-05-30T11:12:02.654Z,65.09
2019-05-30T11:14:33.894Z,66.03
2019-05-30T11:17:05.329Z,65.31
2019-05-30T11:19:38.866Z,64.19
2019-05-30T11:22:17.029Z,65.17
2019-05-30T11:24:48.282Z,65.39
2019-05-30T11:27:19.603Z,65.12
2019-05-30T11:30:02.873Z,65.61
2019-05-30T11:32:59.364Z,63.51
2019-05-30T11:36:14.170Z,62.97
2019-05-30T11:38:53.720Z,63.02
2019-05-30T11:42:01.768Z,65.11
2019-05-30T11:45:01.635Z,63.42
2019-05-30T11:48:01.677Z,64.55
2019-05-30T11:51:00.028Z,63.32
2019-05-30T11:53:53.983Z,61.05
2019-05-30T11:56:50.100Z,59.87
2019-05-30T11:59:52.144Z,61.77
2019-05-30T12:02:42.767Z,61.12
2019-05-30T12:05:38.519Z,60.27
2019-05-30T12:08:27.258Z,60.21
2019-05-30T12:11:32.606Z,58.41
2019-05-30T12:14:13.729Z,60.16
2019-05-30T12:17:10.332Z,63.15
2019-05-30T12:20:00.375Z,65.36
2019-05-30T12:23:00.182Z,66.31
2019-05-30T12:25:48.605Z,66.18
2019-05-30T12:28:52.052Z,65.12
2019-05-30T12:31:52.325Z,65.83
2019-05-30T12:34:58.305Z,67.93
2019-05-30T12:37:56.044Z,64.39
2019-05-30T12:41:10.877Z,66.03
2019-05-30T12:44:33.486Z,66.56
2019-05-30T12:47:48.932Z,65.88
2019-05-30T12:53:58.379Z,58.58
2019-05-30T13:03:04.905Z,59.30
2019-05-30T13:05:57.058Z,62.65
2019-05-30T13:08:46.609Z,65.69
2019-05-30T13:11:41.368Z,66.70
2019-05-30T13:14:41.241Z,66.89
2019-05-30T13:17:50.653Z,66.54
2019-05-30T13:20:52.687Z,67.60
2019-05-30T13:23:28.742Z,66.56
2019-05-30T13:26:00.065Z,65.22
2019-05-30T13:28:31.836Z,63.69
2019-05-30T13:31:04.474Z,61.42
2019-05-30T13:33:38.762Z,62.51
2019-05-30T13:36:12.048Z,62.58
2019-05-30T13:38:46.148Z,62.07
2019-05-30T13:41:21.296Z,63.33
2019-05-30T13:43:55.337Z,62.39
2019-05-30T13:46:30.189Z,62.21
2019-05-30T13:49:02.649Z,61.47
2019-05-30T13:51:35.860Z,60.80
2019-05-30T13:54:09.263Z,60.55
2019-05-30T13:56:41.549Z,60.95
2019-05-30T13:59:14.082Z,60.76
2019-05-30T14:01:45.461Z,59.81
2019-05-30T14:04:20.100Z,60.52
2019-05-30T14:06:53.485Z,61.73
2019-05-30T14:09:25.603Z,60.52
2019-05-30T14:11:57.609Z,61.68
2019-05-30T14:14:30.184Z,60.92
2019-05-30T14:17:01.367Z,61.68
2019-05-30T14:19:32.588Z,62.10
2019-05-30T14:22:07.254Z,62.35
2019-05-30T14:24:41.224Z,62.61
2019-05-30T14:27:13.989Z,61.38
2019-05-30T14:29:46.614Z,60.99
2019-05-30T14:32:19.950Z,61.17
2019-05-30T14:34:58.017Z,61.74
2019-05-30T14:37:30.156Z,63.44
2019-05-30T14:40:11.020Z,61.73
2019-05-30T14:42:43.560Z,61.29
2019-05-30T14:45:19.514Z,60.73
2019-05-30T14:47:50.931Z,61.79
2019-05-30T14:50:23.679Z,60.68
2019-05-30T14:52:57.963Z,61.59
2019-05-30T14:55:29.208Z,61.16
2019-05-30T14:58:02.704Z,60.30
2019-05-30T15:00:33.920Z,61.92
2019-05-30T15:03:09.152Z,61.20
2019-05-30T15:05:42.703Z,60.78
2019-05-30T15:08:18.091Z,61.36
2019-05-30T15:10:49.304Z,60.72
2019-05-30T15:13:22.075Z,60.53
2019-05-30T15:15:57.303Z,61.87
2019-05-30T15:18:31.481Z,61.44
2019-05-30T15:21:06.959Z,61.90
2019-05-30T15:23:38.150Z,61.79
2019-05-30T15:26:14.211Z,61.21
2019-05-30T15:28:46.555Z,61.84
2019-05-30T15:31:19.190Z,62.24
2019-05-30T15:33:53.009Z,63.30
2019-05-30T15:36:29.193Z,62.92
2019-05-30T15:38:59.593Z,63.11
2019-05-30T15:41:36.080Z,63.84
2019-05-30T15:44:07.535Z,62.28
2019-05-30T15:46:41.962Z,62.54
2019-05-30T15:49:16.470Z,63.36
2019-05-30T15:51:49.668Z,63.79
2019-05-30T15:54:22.305Z,63.34
2019-05-30T15:56:56.084Z,62.84
2019-05-30T15:59:32.106Z,63.92
2019-05-30T16:02:04.093Z,64.27
2019-05-30T16:04:36.291Z,65.35
2019-05-30T16:07:08.040Z,64.02
2019-05-30T16:09:46.998Z,63.93
2019-05-30T16:12:15.075Z,65.01
2019-05-30T16:14:49.033Z,63.58
2019-05-30T16:17:25.677Z,62.27
2019-05-30T16:20:02.319Z,61.96
2019-05-30T16:22:36.946Z,61.87
2019-05-30T16:25:15.550Z,62.27
2019-05-30T16:27:51.623Z,62.74
2019-05-30T16:30:26.992Z,63.17
2019-05-30T16:33:00.715Z,64.23
2019-05-30T16:35:34.921Z,64.06
2019-05-30T16:38:10.203Z,64.26
2019-05-30T16:40:45.176Z,63.79
2019-05-30T16:43:20.305Z,63.71
2019-05-30T16:45:54.447Z,64.81
2019-05-30T16:48:26.748Z,65.91
2019-05-30T16:51:12.935Z,65.84
2019-05-30T16:53:56.512Z,65.19
2019-05-30T16:56:42.121Z,65.15
2019-05-30T16:59:45.879Z,65.84
2019-05-30T17:02:29.798Z,65.04
2019-05-30T17:08:46.000Z,65.28
2019-05-30T17:11:36.009Z,65.10
2019-05-30T17:14:49.174Z,64.99
2019-05-30T17:17:49.950Z,65.81
2019-05-30T17:20:59.329Z,66.05
2019-05-30T17:23:41.186Z,66.75
2019-05-30T17:26:27.471Z,67.16
2019-05-30T17:29:19.509Z,66.67
2019-05-30T17:32:23.860Z,66.97
2019-05-30T17:35:30.765Z,66.87
2019-05-30T17:38:36.398Z,66.73
2019-05-30T17:44:34.419Z,66.76
2019-05-30T17:47:29.512Z,67.07
2019-05-30T17:50:29.992Z,67.07
2019-05-30T17:53:35.880Z,67.09
2019-05-30T17:56:26.130Z,67.27
2019-05-30T17:59:08.584Z,67.41
2019-05-30T18:02:31.175Z,67.67
2019-05-30T18:05:22.612Z,66.83
2019-05-30T18:08:36.012Z,67.97
2019-05-30T18:11:11.872Z,67.80
2019-05-30T18:13:47.488Z,68.48
2019-05-30T18:16:20.984Z,69.05
2019-05-30T18:18:55.280Z,69.31
2019-05-30T18:21:27.485Z,69.10
2019-05-30T18:24:03.811Z,68.78
2019-05-30T18:26:35.341Z,68.89
2019-05-30T18:29:06.598Z,68.98
2019-05-30T18:31:38.403Z,68.90
2019-05-30T18:34:09.662Z,69.23
2019-05-30T18:36:41.437Z,69.29
2019-05-30T18:39:17.116Z,70.00
2019-05-30T18:41:48.485Z,70.26
2019-05-30T18:44:20.971Z,69.90
2019-05-30T18:46:57.562Z,70.53
2019-05-30T18:49:29.383Z,71.33
2019-05-30T18:52:00.704Z,70.99
2019-05-30T18:54:32.936Z,72.50
2019-05-30T18:57:05.347Z,73.68
2019-05-30T18:59:37.494Z,74.00
2019-05-30T19:02:13.152Z,73.68
2019-05-30T19:04:44.662Z,74.00
2019-05-30T19:07:19.277Z,74.03
2019-05-30T19:09:52.927Z,74.14
2019-05-30T19:12:30.102Z,73.70
2019-05-30T19:18:15.212Z,73.67
2019-05-30T19:20:47.993Z,74.59
2019-05-30T19:23:22.254Z,73.15
2019-05-30T19:25:57.082Z,72.69
2019-05-30T19:28:30.383Z,73.26
2019-05-30T19:31:06.335Z,73.56
2019-05-30T19:33:38.703Z,74.38
2019-05-30T19:36:12.180Z,74.41
2019-05-30T19:38:45.085Z,74.32
2019-05-30T19:41:17.946Z,74.90
2019-05-30T19:43:50.363Z,74.70
2019-05-30T19:46:21.684Z,74.34
2019-05-30T19:48:55.149Z,74.47
2019-05-30T19:51:26.715Z,74.07
2019-05-30T19:53:57.941Z,74.57
2019-05-30T19:56:29.315Z,75.33
2019-05-30T19:59:01.338Z,75.88
2019-05-30T20:01:33.770Z,75.27
2019-05-30T20:04:05.770Z,75.80
2019-05-30T20:06:37.210Z,75.29
2019-05-30T20:09:11.025Z,75.22
2019-05-30T20:11:42.782Z,75.34
2019-05-30T20:14:14.206Z,75.83
2019-05-30T20:16:45.727Z,75.73
2019-05-30T20:19:17.161Z,75.62
2019-05-30T20:21:48.676Z,76.04
2019-05-30T20:24:20.253Z,75.34
2019-05-30T20:26:52.871Z,75.99
2019-05-30T20:29:24.394Z,75.23
2019-05-30T20:31:55.904Z,74.70
2019-05-30T20:34:28.729Z,74.40
2019-05-30T20:37:00.138Z,74.65
2019-05-30T20:39:32.513Z,74.05
2019-05-30T20:42:18.238Z,74.90
2019-05-30T20:44:38.859Z,75.44
2019-05-30T20:47:11.737Z,75.70
2019-05-30T20:49:43.395Z,75.29
2019-05-30T20:52:16.223Z,75.62
2019-05-30T20:54:47.675Z,75.52
2019-05-30T20:57:19.049Z,75.60
2019-05-30T20:59:50.628Z,75.54
2019-05-30T21:02:22.205Z,75.73
2019-05-30T21:04:53.525Z,75.63
2019-05-30T21:07:25.900Z,75.19
2019-05-30T21:09:58.594Z,75.00
2019-05-30T21:12:37.693Z,75.27
2019-05-30T21:15:09.010Z,75.29
2019-05-30T21:17:42.320Z,75.14
2019-05-30T21:20:15.380Z,75.71
2019-05-30T21:22:48.392Z,75.83
2019-05-30T21:25:20.486Z,76.20
2019-05-30T21:27:52.237Z,76.51
2019-05-30T21:30:23.560Z,76.77
2019-05-30T21:32:55.220Z,76.76
2019-05-30T21:35:26.808Z,76.57
2019-05-30T21:37:58.552Z,76.39
2019-05-30T21:40:30.001Z,76.06
2019-05-30T21:43:06.751Z,76.12
2019-05-30T21:45:35.589Z,76.40
2019-05-30T21:48:07.052Z,76.54
2019-05-30T21:50:39.277Z,76.65
2019-05-30T21:53:11.610Z,76.56
2019-05-30T21:55:43.949Z,76.15
2019-05-30T21:58:15.476Z,75.93
2019-05-30T22:00:51.314Z,76.10
2019-05-30T22:03:24.825Z,76.24
2019-05-30T22:05:57.573Z,76.22
2019-05-30T22:08:29.073Z,76.51
2019-05-30T22:11:00.510Z,76.66
2019-05-30T22:13:32.996Z,77.65
2019-05-30T22:16:04.310Z,77.85
2019-05-30T22:18:35.803Z,78.31
2019-05-30T22:21:07.865Z,78.78
2019-05-30T22:23:39.335Z,78.84
2019-05-30T22:26:11.935Z,79.03
2019-05-30T22:28:44.361Z,79.29
2019-05-30T22:31:15.930Z,79.44
2019-05-30T22:33:47.285Z,79.39
2019-05-30T22:36:20.214Z,79.44
2019-05-30T22:38:56.906Z,79.53
2019-05-30T22:41:28.526Z,79.66
2019-05-30T22:44:00.315Z,79.55
2019-05-30T22:46:32.088Z,79.72
2019-05-30T22:49:19.145Z,80.01
2019-05-30T22:51:51.131Z,79.94
2019-05-30T22:54:23.616Z,80.27
2019-05-30T22:57:14.120Z,80.50
2019-05-30T22:59:49.065Z,80.46
2019-05-30T23:02:20.362Z,80.48
2019-05-30T23:04:52.236Z,80.02
2019-05-30T23:07:24.070Z,80.08
2019-05-30T23:09:56.859Z,80.28
2019-05-30T23:12:30.046Z,80.33
2019-05-30T23:15:02.543Z,80.48
2019-05-30T23:17:35.534Z,80.52
2019-05-30T23:20:09.827Z,80.40
2019-05-30T23:22:41.857Z,79.74
2019-05-30T23:25:14.584Z,79.16
2019-05-30T23:27:47.358Z,78.39
2019-05-30T23:30:19.814Z,78.38
2019-05-30T23:32:52.120Z,77.96
2019-05-30T23:35:23.983Z,77.01
2019-05-30T23:37:57.211Z,76.19
2019-05-30T23:40:28.813Z,76.48
2019-05-30T23:43:00.362Z,76.40
2019-05-30T23:45:33.475Z,76.47
2019-05-30T23:48:06.398Z,77.38
2019-05-30T23:50:39.320Z,77.58
2019-05-30T23:53:12.130Z,77.40
2019-05-30T23:55:43.401Z,77.47
2019-05-30T23:58:15.011Z,78.52
